Time;durP1;ratioP1;P1;durP2;ratioP2;P2;SDS_P1;SDS_P2;PMS_P1;PMS_P2;Temp;Humidity;BMP_temperature;BMP_pressure;BME280_temperature;BME280_humidity;BME280_pressure;Samples;Min_cycle;Max_cycle;Signal;HPM_P1;HPM_P2
2023/09/27 00:00:20;;;;;;;;;;;;;;;17.26;45.49;101182.16;4961784;28;99158;-61
2023/09/27 00:02:46;;;;;;;;;;;;;;;17.25;45.67;101190.63;4963441;28;98600;-55
2023/09/27 00:05:14;;;;;;;;;;;;;;;17.23;45.54;101184.66;4962806;28;100667;-61
2023/09/27 00:07:40;;;;;;;;;;;;;;;17.21;45.65;101179.50;4945902;28;98055;-55
2023/09/27 00:10:11;;;;;;;;;;;;;;;17.19;45.50;101189.91;4963227;28;97997;-61
2023/09/27 00:12:37;;;;;;;;;;;;;;;17.22;45.68;101180.34;4963796;28;98565;-61
2023/09/27 00:15:04;;;;;;;;;;;;;;;17.28;45.58;101182.66;4925551;28;98157;-58
2023/09/27 00:17:31;;;;;;;;;;;;;;;17.35;45.37;101193.19;4973388;27;98438;-61
2023/09/27 00:19:57;;;;;;;;;;;;;;;17.38;45.43;101193.44;4975682;27;98782;-61
2023/09/27 00:22:25;;;;;;;;;;;;;;;17.42;45.56;101188.19;4956083;28;117828;-55
2023/09/27 00:24:51;;;;;;;;;;;;;;;17.42;45.36;101194.44;4946774;28;99021;-61
2023/09/27 00:27:18;;;;;;;;;;;;;;;17.44;45.44;101199.59;4938842;28;121611;-56
2023/09/27 00:29:45;;;;;;;;;;;;;;;17.45;45.42;101197.69;4931061;28;99625;-61
2023/09/27 00:32:12;;;;;;;;;;;;;;;17.43;45.57;101201.50;4947482;28;98693;-61
2023/09/27 00:34:37;;;;;;;;;;;;;;;17.42;45.53;101194.44;4956755;28;98311;-55
2023/09/27 00:37:04;;;;;;;;;;;;;;;17.40;45.49;101196.66;4944413;28;124418;-61
2023/09/27 00:39:30;;;;;;;;;;;;;;;17.40;45.71;101195.84;4925556;28;98271;-61
2023/09/27 00:41:59;;;;;;;;;;;;;;;17.36;45.68;101195.63;4942848;28;97988;-55
2023/09/27 00:44:25;;;;;;;;;;;;;;;17.35;45.55;101198.66;4938230;28;97960;-61
2023/09/27 00:46:51;;;;;;;;;;;;;;;17.32;45.71;101194.59;4946694;28;98228;-56
2023/09/27 00:49:17;;;;;;;;;;;;;;;17.30;45.71;101191.38;4962502;28;99600;-61
2023/09/27 00:51:44;;;;;;;;;;;;;;;17.27;45.70;101193.88;4945138;28;98236;-55
2023/09/27 00:54:10;;;;;;;;;;;;;;;17.22;45.77;101185.78;4944694;28;99372;-55
2023/09/27 00:56:37;;;;;;;;;;;;;;;17.17;45.71;101184.75;4943219;28;98641;-61
2023/09/27 00:59:03;;;;;;;;;;;;;;;17.12;45.70;101186.72;4941007;28;99686;-61
2023/09/27 01:01:29;;;;;;;;;;;;;;;17.06;45.88;101196.88;4961101;28;97929;-55
2023/09/27 01:03:55;;;;;;;;;;;;;;;17.01;45.79;101196.94;4942551;28;121312;-56
2023/09/27 01:06:22;;;;;;;;;;;;;;;16.98;45.82;101185.81;4945928;28;98412;-60
2023/09/27 01:08:48;;;;;;;;;;;;;;;16.95;45.80;101186.41;4961128;28;98067;-61
2023/09/27 01:11:14;;;;;;;;;;;;;;;16.92;45.92;101185.88;4944255;28;98589;-61
2023/09/27 01:13:39;;;;;;;;;;;;;;;16.89;45.80;101186.47;4959033;28;99383;-61
2023/09/27 01:16:06;;;;;;;;;;;;;;;16.88;45.80;101184.84;4955311;28;101920;-61
2023/09/27 01:18:32;;;;;;;;;;;;;;;16.86;45.76;101184.34;4944083;28;106249;-61
2023/09/27 01:20:58;;;;;;;;;;;;;;;16.83;45.70;101174.03;4961964;28;99157;-61
2023/09/27 01:23:24;;;;;;;;;;;;;;;16.82;45.81;101185.19;4961008;28;98049;-61
2023/09/27 01:25:54;;;;;;;;;;;;;;;16.80;45.81;101180.06;4942106;28;98175;-61
2023/09/27 01:28:21;;;;;;;;;;;;;;;16.78;45.75;101176.00;4971551;27;98284;-61
2023/09/27 01:30:47;;;;;;;;;;;;;;;16.77;45.83;101174.38;4916797;28;98398;-55
2023/09/27 01:33:13;;;;;;;;;;;;;;;16.74;45.91;101164.06;4941940;28;98282;-61
2023/09/27 01:35:41;;;;;;;;;;;;;;;16.70;45.93;101161.09;4929435;28;97853;-55
2023/09/27 01:38:08;;;;;;;;;;;;;;;16.67;45.97;101162.50;4941801;28;100316;-55
2023/09/27 01:40:39;;;;;;;;;;;;;;;16.64;45.86;101160.34;4945198;28;97974;-60
2023/09/27 01:43:06;;;;;;;;;;;;;;;16.62;45.83;101165.28;4941160;28;99537;-55
2023/09/27 01:45:32;;;;;;;;;;;;;;;16.60;45.86;101161.22;4961112;28;98498;-55
2023/09/27 01:47:58;;;;;;;;;;;;;;;16.57;45.82;101173.50;4943143;28;98598;-61
2023/09/27 01:50:25;;;;;;;;;;;;;;;16.57;45.97;101167.25;4942117;28;98733;-61
2023/09/27 01:52:55;;;;;;;;;;;;;;;16.55;45.97;101164.84;4924110;28;100294;-61
2023/09/27 01:55:22;;;;;;;;;;;;;;;16.54;45.90;101160.47;4942693;28;99108;-60
2023/09/27 01:57:48;;;;;;;;;;;;;;;16.52;46.00;101172.75;4960614;28;98451;-61
2023/09/27 02:00:15;;;;;;;;;;;;;;;16.50;45.92;101169.50;4973734;27;98219;-55
2023/09/27 02:02:42;;;;;;;;;;;;;;;16.47;46.00;101167.38;4940649;28;117174;-55
2023/09/27 02:05:09;;;;;;;;;;;;;;;16.44;45.81;101172.28;4969371;27;98173;-55
2023/09/27 02:07:37;;;;;;;;;;;;;;;16.42;45.84;101171.75;4943421;28;99409;-61
2023/09/27 02:10:03;;;;;;;;;;;;;;;16.40;45.87;101173.16;4940671;28;98298;-61
2023/09/27 02:12:29;;;;;;;;;;;;;;;16.38;46.01;101175.34;4960085;28;105582;-61
2023/09/27 02:14:55;;;;;;;;;;;;;;;16.36;46.07;101177.56;4961213;28;99563;-55
2023/09/27 02:17:21;;;;;;;;;;;;;;;16.33;45.90;101181.66;4960896;28;99883;-60
2023/09/27 02:19:47;;;;;;;;;;;;;;;16.32;45.96;101180.06;4975665;27;98935;-56
2023/09/27 02:22:13;;;;;;;;;;;;;;;16.29;46.06;101177.09;4926690;28;98114;-61
2023/09/27 02:24:40;;;;;;;;;;;;;;;16.29;45.97;101186.06;4956185;28;101769;-61
2023/09/27 02:27:06;;;;;;;;;;;;;;;16.27;45.98;101182.84;4958581;28;98466;-55
2023/09/27 02:29:32;;;;;;;;;;;;;;;16.25;46.04;101182.28;4972519;27;98119;-60
2023/09/27 02:31:59;;;;;;;;;;;;;;;16.24;45.93;101174.44;4954912;28;98229;-55
2023/09/27 02:34:27;;;;;;;;;;;;;;;16.24;46.10;101177.16;4940002;28;98804;-55
2023/09/27 02:36:53;;;;;;;;;;;;;;;16.22;46.07;101180.16;4956579;28;98229;-61
2023/09/27 02:39:19;;;;;;;;;;;;;;;16.21;45.87;101170.38;4942051;28;99167;-60
2023/09/27 02:41:45;;;;;;;;;;;;;;;16.19;45.84;101173.41;4959650;28;115754;-60
2023/09/27 02:44:12;;;;;;;;;;;;;;;16.17;45.87;101167.41;4973084;27;98536;-57
2023/09/27 02:46:40;;;;;;;;;;;;;;;16.16;45.88;101171.25;4957324;28;98385;-60
2023/09/27 02:49:05;;;;;;;;;;;;;;;16.13;45.87;101179.97;4961342;28;109113;-55
2023/09/27 02:51:34;;;;;;;;;;;;;;;16.12;46.26;101174.81;4938339;28;130149;-56
2023/09/27 02:54:00;;;;;;;;;;;;;;;16.10;45.83;101175.09;4920436;28;98195;-60
2023/09/27 02:56:26;;;;;;;;;;;;;;;16.08;45.88;101177.31;4953043;28;100260;-55
2023/09/27 02:58:53;;;;;;;;;;;;;;;16.07;46.05;101177.56;4961594;28;98281;-55
2023/09/27 03:01:19;;;;;;;;;;;;;;;16.04;45.97;101181.69;4940213;28;98013;-55
2023/09/27 03:03:46;;;;;;;;;;;;;;;16.03;46.04;101181.97;4960674;28;98005;-55
2023/09/27 03:06:14;;;;;;;;;;;;;;;16.03;46.00;101192.84;4960461;28;98559;-55
2023/09/27 03:08:43;;;;;;;;;;;;;;;16.00;45.97;101188.81;4950842;28;98571;-61
2023/09/27 03:11:10;;;;;;;;;;;;;;;15.99;46.10;101197.22;4926311;28;99793;-55
2023/09/27 03:13:38;;;;;;;;;;;;;;;15.97;45.92;101197.53;4947917;28;98963;-60
2023/09/27 03:16:04;;;;;;;;;;;;;;;15.94;46.07;101198.09;4945594;28;99921;-55
2023/09/27 03:18:33;;;;;;;;;;;;;;;15.92;46.19;101190.22;4962487;28;100202;-61
2023/09/27 03:20:59;;;;;;;;;;;;;;;15.91;45.99;101196.75;4960588;28;99543;-56
2023/09/27 03:23:27;;;;;;;;;;;;;;;15.89;45.94;101204.38;4963546;28;98279;-61
2023/09/27 03:25:53;;;;;;;;;;;;;;;15.88;46.06;101201.97;4941454;28;98963;-61
2023/09/27 03:28:19;;;;;;;;;;;;;;;15.85;46.23;101200.63;4961856;28;98101;-55
2023/09/27 03:30:47;;;;;;;;;;;;;;;15.83;45.99;101202.00;4923781;28;98393;-60
2023/09/27 03:33:13;;;;;;;;;;;;;;;15.80;46.15;101210.72;4948859;28;98774;-60
2023/09/27 03:35:39;;;;;;;;;;;;;;;15.78;45.97;101213.72;4948658;28;98451;-60
2023/09/27 03:38:05;;;;;;;;;;;;;;;15.75;46.13;101203.41;4945590;28;101126;-55
2023/09/27 03:40:32;;;;;;;;;;;;;;;15.71;46.42;101195.00;4952179;28;98933;-55
2023/09/27 03:42:58;;;;;;;;;;;;;;;15.68;46.05;101197.50;4927869;28;98113;-61
2023/09/27 03:45:25;;;;;;;;;;;;;;;15.64;46.01;101190.97;4974764;27;99258;-55
2023/09/27 03:47:51;;;;;;;;;;;;;;;15.59;46.12;101194.53;4928124;28;98232;-55
2023/09/27 03:50:17;;;;;;;;;;;;;;;15.57;46.23;101193.22;4964903;28;99941;-61
2023/09/27 03:52:43;;;;;;;;;;;;;;;15.55;46.20;101198.09;4931550;28;98404;-55
2023/09/27 03:55:10;;;;;;;;;;;;;;;15.53;46.20;101201.13;4954879;28;98523;-55
2023/09/27 03:57:36;;;;;;;;;;;;;;;15.51;46.36;101188.91;4943088;28;99947;-60
2023/09/27 04:00:06;;;;;;;;;;;;;;;15.49;46.03;101196.53;4961996;28;98924;-60
2023/09/27 04:02:32;;;;;;;;;;;;;;;15.46;46.00;101198.72;4942174;28;99191;-61
2023/09/27 04:04:58;;;;;;;;;;;;;;;15.43;45.95;101204.69;4953558;28;115538;-55
2023/09/27 04:07:25;;;;;;;;;;;;;;;15.40;46.20;101202.53;4948596;28;98612;-55
2023/09/27 04:09:52;;;;;;;;;;;;;;;15.37;46.24;101205.84;4956625;28;97879;-60
2023/09/27 04:12:17;;;;;;;;;;;;;;;15.37;46.16;101210.47;4925624;28;98222;-61
2023/09/27 04:14:43;;;;;;;;;;;;;;;15.35;45.89;101207.19;4958939;28;120144;-61
2023/09/27 04:17:10;;;;;;;;;;;;;;;15.34;46.11;101213.75;4928405;28;98442;-55
2023/09/27 04:19:36;;;;;;;;;;;;;;;15.31;46.44;101208.84;4950220;28;100399;-55
2023/09/27 04:22:02;;;;;;;;;;;;;;;15.28;46.28;101212.13;4968633;27;98150;-55
2023/09/27 04:24:28;;;;;;;;;;;;;;;15.27;46.10;101210.50;4961668;28;98168;-60
2023/09/27 04:26:54;;;;;;;;;;;;;;;15.25;46.03;101212.69;4967024;28;98219;-56
2023/09/27 04:29:20;;;;;;;;;;;;;;;15.22;46.26;101216.78;4945539;28;110529;-61
2023/09/27 04:31:46;;;;;;;;;;;;;;;15.19;46.05;101206.47;4957758;27;98735;-61
2023/09/27 04:34:13;;;;;;;;;;;;;;;15.17;46.22;101206.78;4940337;28;98554;-61
2023/09/27 04:36:39;;;;;;;;;;;;;;;15.13;46.08;101208.44;4963858;28;99247;-61
2023/09/27 04:39:11;;;;;;;;;;;;;;;15.10;46.36;101208.97;4964888;28;129850;-61
2023/09/27 04:41:37;;;;;;;;;;;;;;;15.06;46.31;101205.19;4945677;28;98890;-57
2023/09/27 04:44:03;;;;;;;;;;;;;;;15.04;46.11;101206.56;4927428;28;98357;-55
2023/09/27 04:46:29;;;;;;;;;;;;;;;15.01;46.49;101212.53;4946518;28;98900;-61
2023/09/27 04:48:55;;;;;;;;;;;;;;;15.00;46.21;101217.16;4945404;28;98848;-55
2023/09/27 04:51:21;;;;;;;;;;;;;;;15.01;46.12;101213.34;4972291;27;98254;-60
2023/09/27 04:53:47;;;;;;;;;;;;;;;15.01;46.16;101213.34;4954679;28;98169;-55
2023/09/27 04:56:13;;;;;;;;;;;;;;;15.01;46.50;101226.91;4962997;28;98348;-55
2023/09/27 04:58:42;;;;;;;;;;;;;;;15.01;46.12;101220.69;4944532;28;117345;-55
2023/09/27 05:01:11;;;;;;;;;;;;;;;15.01;46.16;101226.13;4961287;28;98177;-54
2023/09/27 05:03:37;;;;;;;;;;;;;;;15.00;46.36;101225.31;4944879;28;100404;-61
2023/09/27 05:06:04;;;;;;;;;;;;;;;15.00;46.12;101227.22;4940139;28;98326;-55
2023/09/27 05:08:30;;;;;;;;;;;;;;;14.98;46.31;101230.22;4972492;27;97961;-55
2023/09/27 05:10:56;;;;;;;;;;;;;;;14.96;46.37;101226.94;4944056;28;99360;-55
2023/09/27 05:13:22;;;;;;;;;;;;;;;14.95;46.37;101225.34;4962408;28;99624;-60
2023/09/27 05:15:49;;;;;;;;;;;;;;;14.93;46.24;101219.34;4956639;28;98890;-60
2023/09/27 05:18:15;;;;;;;;;;;;;;;14.91;46.42;101224.28;4937884;28;98268;-55
2023/09/27 05:20:43;;;;;;;;;;;;;;;14.90;46.19;101228.88;4944433;28;98192;-55
2023/09/27 05:23:10;;;;;;;;;;;;;;;14.92;46.30;101236.75;4938787;28;98323;-60
2023/09/27 05:25:36;;;;;;;;;;;;;;;14.93;46.11;101246.50;4960261;28;98663;-60
2023/09/27 05:28:03;;;;;;;;;;;;;;;14.93;46.41;101241.06;4972384;27;98172;-55
2023/09/27 05:30:29;;;;;;;;;;;;;;;14.97;46.25;101253.84;4960934;28;99554;-54
2023/09/27 05:32:55;;;;;;;;;;;;;;;15.01;45.94;101254.06;4927809;28;100143;-55
2023/09/27 05:35:22;;;;;;;;;;;;;;;15.05;46.03;101257.03;4956276;28;126829;-60
2023/09/27 05:37:49;;;;;;;;;;;;;;;15.10;46.25;101265.19;4959499;28;98415;-60
2023/09/27 05:40:15;;;;;;;;;;;;;;;15.14;45.93;101261.63;4939945;28;98406;-60
2023/09/27 05:42:41;;;;;;;;;;;;;;;15.19;46.09;101258.06;4959227;28;104204;-60
2023/09/27 05:45:10;;;;;;;;;;;;;;;15.21;45.84;101264.88;4944049;28;99672;-60
2023/09/27 05:47:36;;;;;;;;;;;;;;;15.25;45.95;101264.28;4943772;28;98200;-60
2023/09/27 05:50:04;;;;;;;;;;;;;;;15.29;45.87;101270.78;4957398;28;99825;-60
2023/09/27 05:52:30;;;;;;;;;;;;;;;15.31;46.13;101269.41;4924497;28;98731;-60
2023/09/27 05:54:57;;;;;;;;;;;;;;;15.37;45.96;101279.19;4943674;28;98167;-55
2023/09/27 05:57:23;;;;;;;;;;;;;;;15.42;45.81;101290.00;4958382;28;98355;-55
2023/09/27 05:59:50;;;;;;;;;;;;;;;15.47;45.89;101281.81;4929283;28;98013;-60
2023/09/27 06:02:16;;;;;;;;;;;;;;;15.52;45.93;101289.13;4961994;28;97972;-55
2023/09/27 06:04:51;;;;;;;;;;;;;;;15.58;45.73;101284.50;4954141;28;98449;-60
2023/09/27 06:07:18;;;;;;;;;;;;;;;15.63;45.87;101289.88;4920793;28;125936;-55
2023/09/27 06:09:44;;;;;;;;;;;;;;;15.68;45.92;101290.72;4945497;28;98198;-60
2023/09/27 06:12:10;;;;;;;;;;;;;;;15.73;45.84;101283.63;4968588;27;98445;-55
2023/09/27 06:14:36;;;;;;;;;;;;;;;15.78;45.69;101278.16;4969139;27;99340;-55
2023/09/27 06:17:03;;;;;;;;;;;;;;;15.80;45.81;101284.94;4950581;28;98985;-55
2023/09/27 06:19:32;;;;;;;;;;;;;;;15.83;45.84;101284.34;4946294;28;99348;-60
2023/09/27 06:21:58;;;;;;;;;;;;;;;15.86;45.77;101296.56;4961627;28;98053;-60
2023/09/27 06:24:26;;;;;;;;;;;;;;;15.90;45.83;101301.16;4972616;27;97924;-54
2023/09/27 06:26:52;;;;;;;;;;;;;;;15.99;45.67;101304.06;4944634;28;98536;-60
2023/09/27 06:29:19;;;;;;;;;;;;;;;16.07;45.49;101306.22;4945107;28;99803;-59
2023/09/27 06:31:47;;;;;;;;;;;;;;;16.18;45.61;101312.38;4945590;28;99579;-55
2023/09/27 06:34:16;;;;;;;;;;;;;;;16.27;45.58;101313.41;4945273;28;98338;-55
2023/09/27 06:36:43;;;;;;;;;;;;;;;16.36;45.53;101316.31;4969558;27;98352;-55
2023/09/27 06:39:16;;;;;;;;;;;;;;;16.41;45.49;101308.91;4944104;28;98039;-55
2023/09/27 06:41:44;;;;;;;;;;;;;;;16.51;45.47;101308.00;4948447;28;98120;-55
2023/09/27 06:44:12;;;;;;;;;;;;;;;16.58;45.38;101310.38;4942035;28;98843;-60
2023/09/27 06:46:38;;;;;;;;;;;;;;;16.67;45.50;101319.56;4946909;28;98110;-54
2023/09/27 06:49:05;;;;;;;;;;;;;;;16.76;45.39;101314.31;4976684;27;98100;-60
2023/09/27 06:51:31;;;;;;;;;;;;;;;16.85;45.51;101323.47;4940830;28;99843;-60
2023/09/27 06:53:57;;;;;;;;;;;;;;;16.95;45.20;101330.75;4948004;28;98058;-55
2023/09/27 06:56:24;;;;;;;;;;;;;;;17.04;45.39;101329.81;4962809;28;99776;-59
2023/09/27 06:58:51;;;;;;;;;;;;;;;17.13;45.29;101333.53;4945989;28;97974;-60
2023/09/27 07:01:18;;;;;;;;;;;;;;;17.23;45.30;101339.94;4930103;28;99402;-55
2023/09/27 07:03:44;;;;;;;;;;;;;;;17.32;45.28;101333.56;4943696;28;97856;-60
2023/09/27 07:06:10;;;;;;;;;;;;;;;17.41;45.23;101339.19;4976072;27;98376;-60
2023/09/27 07:08:36;;;;;;;;;;;;;;;17.50;45.04;101342.06;4957152;28;98247;-55
2023/09/27 07:11:09;;;;;;;;;;;;;;;17.59;45.11;101343.84;4940385;28;99811;-55
2023/09/27 07:13:35;;;;;;;;;;;;;;;17.71;45.21;101340.66;4961120;28;98999;-60
2023/09/27 07:16:20;;;;;;;;;;;;;;;17.80;45.21;101335.41;4962589;28;98300;-61
2023/09/27 07:18:48;;;;;;;;;;;;;;;17.91;45.13;101345.88;4949130;28;97975;-60
2023/09/27 07:21:14;;;;;;;;;;;;;;;18.03;45.08;101345.41;4943381;28;99486;-55
2023/09/27 07:23:42;;;;;;;;;;;;;;;18.17;45.02;101352.88;4950012;28;99802;-55
2023/09/27 07:26:09;;;;;;;;;;;;;;;18.31;44.75;101343.63;4932573;28;98005;-60
2023/09/27 07:28:35;;;;;;;;;;;;;;;18.46;44.80;101348.00;4944337;28;98329;-55
2023/09/27 07:31:01;;;;;;;;;;;;;;;18.60;44.82;101348.06;4965685;28;98362;-55
2023/09/27 07:33:29;;;;;;;;;;;;;;;18.81;44.46;101356.72;4955551;28;98446;-55
2023/09/27 07:35:55;;;;;;;;;;;;;;;19.01;44.58;101348.13;4962517;28;98117;-55
2023/09/27 07:38:21;;;;;;;;;;;;;;;19.18;44.47;101349.44;4928012;28;98092;-55
2023/09/27 07:40:48;;;;;;;;;;;;;;;19.28;44.58;101349.25;4975283;27;98180;-55
2023/09/27 07:43:15;;;;;;;;;;;;;;;19.27;44.89;101345.72;4958112;28;98049;-60
2023/09/27 07:45:43;;;;;;;;;;;;;;;19.35;44.69;101345.00;4943527;28;98443;-60
2023/09/27 07:48:09;;;;;;;;;;;;;;;19.44;44.57;101347.81;4965394;28;98259;-55
2023/09/27 07:50:37;;;;;;;;;;;;;;;19.41;44.92;101350.34;4961715;27;99884;-55
2023/09/27 07:53:06;;;;;;;;;;;;;;;19.41;44.98;101345.69;4964286;28;98600;-55
2023/09/27 07:55:50;;;;;;;;;;;;;;;19.61;44.65;101339.84;4947816;28;98317;-55
2023/09/27 07:58:17;;;;;;;;;;;;;;;20.09;44.17;101338.47;4960148;28;98684;-55
2023/09/27 08:00:43;;;;;;;;;;;;;;;20.53;43.85;101336.84;4959058;28;97981;-56
2023/09/27 08:03:10;;;;;;;;;;;;;;;20.93;43.59;101332.22;4921248;28;122988;-60
2023/09/27 08:05:46;;;;;;;;;;;;;;;21.53;43.00;101328.84;4947087;28;98176;-61
2023/09/27 08:08:13;;;;;;;;;;;;;;;22.13;42.79;101330.03;4944323;28;99578;-56
2023/09/27 08:10:47;;;;;;;;;;;;;;;23.07;42.41;101335.63;4964160;28;98131;-57
2023/09/27 08:13:14;;;;;;;;;;;;;;;24.03;40.95;101330.28;4927432;28;98137;-56
2023/09/27 08:15:41;;;;;;;;;;;;;;;25.10;40.49;101342.28;4946800;28;99173;-60
2023/09/27 08:18:07;;;;;;;;;;;;;;;25.91;40.32;101340.44;4950177;28;98448;-60
2023/09/27 08:20:36;;;;;;;;;;;;;;;27.19;39.11;101342.25;4945720;28;98384;-60
2023/09/27 08:23:02;;;;;;;;;;;;;;;27.86;39.30;101347.69;4973760;27;99494;-55
2023/09/27 08:25:29;;;;;;;;;;;;;;;28.52;39.54;101345.84;4957753;28;99429;-55
2023/09/27 08:27:56;;;;;;;;;;;;;;;31.43;36.43;101337.91;4975447;27;98324;-61
2023/09/27 08:30:22;;;;;;;;;;;;;;;33.42;35.15;101336.69;4948454;28;98359;-55
2023/09/27 08:32:48;;;;;;;;;;;;;;;34.88;34.80;101340.69;4962702;28;98598;-55
2023/09/27 08:35:14;;;;;;;;;;;;;;;36.07;34.53;101336.19;4938208;28;98012;-56
2023/09/27 08:37:40;;;;;;;;;;;;;;;37.25;34.24;101334.28;4964378;28;98054;-55
2023/09/27 08:40:12;;;;;;;;;;;;;;;38.18;33.38;101321.09;4960465;28;98622;-61
2023/09/27 08:42:39;;;;;;;;;;;;;;;38.81;33.71;101314.38;4945243;28;98442;-61
2023/09/27 08:45:09;;;;;;;;;;;;;;;39.40;33.30;101312.38;4955875;28;122281;-55
2023/09/27 08:47:35;;;;;;;;;;;;;;;40.11;32.91;101301.78;4961827;28;98007;-61
2023/09/27 08:50:01;;;;;;;;;;;;;;;40.72;32.76;101294.16;4944141;28;98508;-55
2023/09/27 08:52:28;;;;;;;;;;;;;;;40.88;32.52;101277.03;4958050;28;98402;-61
2023/09/27 08:54:54;;;;;;;;;;;;;;;40.49;32.87;101281.19;4975250;27;98910;-55
2023/09/27 08:57:20;;;;;;;;;;;;;;;39.56;33.87;101272.81;4960322;28;98149;-60
2023/09/27 08:59:46;;;;;;;;;;;;;;;37.81;35.25;101260.47;4947817;28;98307;-55
2023/09/27 09:02:13;;;;;;;;;;;;;;;35.96;36.81;101251.41;4961310;28;98663;-61
2023/09/27 09:04:39;;;;;;;;;;;;;;;34.88;37.97;101243.50;4944987;28;99098;-55
2023/09/27 09:07:06;;;;;;;;;;;;;;;34.10;38.77;101242.16;4961808;28;98431;-55
2023/09/27 09:09:33;;;;;;;;;;;;;;;33.32;38.96;101234.16;4961558;28;98180;-61
2023/09/27 09:12:01;;;;;;;;;;;;;;;32.64;39.87;101229.53;4958518;28;99068;-55
2023/09/27 09:14:49;;;;;;;;;;;;;;;32.24;40.07;101233.50;4962946;27;99063;-60
2023/09/27 09:17:18;;;;;;;;;;;;;;;31.99;40.21;101227.88;4945147;28;98280;-60
2023/09/27 09:20:02;;;;;;;;;;;;;;;31.85;40.27;101217.53;4955596;28;98560;-60
2023/09/27 09:22:30;;;;;;;;;;;;;;;31.75;40.44;101215.47;4963773;28;97932;-55
2023/09/27 09:24:59;;;;;;;;;;;;;;;31.74;40.32;101211.91;4963486;28;100246;-55
2023/09/27 09:27:25;;;;;;;;;;;;;;;31.74;40.38;101217.47;4943914;28;98073;-55
2023/09/27 09:29:55;;;;;;;;;;;;;;;31.72;40.10;101213.50;4961360;28;100055;-61
2023/09/27 09:32:22;;;;;;;;;;;;;;;31.69;40.11;101212.28;4958501;28;99141;-60
2023/09/27 09:34:52;;;;;;;;;;;;;;;31.73;40.27;101210.31;4956427;28;98206;-56
2023/09/27 09:37:19;;;;;;;;;;;;;;;31.78;39.90;101211.91;4960693;28;99728;-60
2023/09/27 09:39:46;;;;;;;;;;;;;;;31.75;40.32;101207.94;4958389;28;100357;-55
2023/09/27 09:42:14;;;;;;;;;;;;;;;31.68;39.99;101196.78;4961063;28;98132;-61
2023/09/27 09:44:40;;;;;;;;;;;;;;;31.60;40.31;101192.38;4959284;28;99961;-55
2023/09/27 09:47:11;;;;;;;;;;;;;;;31.66;40.35;101199.16;4941523;28;105130;-55
2023/09/27 09:49:38;;;;;;;;;;;;;;;31.75;40.15;101196.78;4943375;28;98357;-61
2023/09/27 09:52:04;;;;;;;;;;;;;;;31.85;39.93;101205.59;4960248;28;98500;-61
2023/09/27 09:54:47;;;;;;;;;;;;;;;32.07;39.85;101198.84;4944540;28;114440;-61
2023/09/27 09:57:13;;;;;;;;;;;;;;;31.92;40.31;101198.03;4961173;28;98109;-61
2023/09/27 10:00:11;;;;;;;;;;;;;;;32.14;40.09;101201.63;4958230;28;98173;-61
2023/09/27 10:02:50;;;;;;;;;;;;;;;32.29;39.80;101199.66;4953357;28;99820;-55
2023/09/27 10:05:22;;;;;;;;;;;;;;;32.49;40.00;101191.69;4959778;28;98282;-55
2023/09/27 10:07:50;;;;;;;;;;;;;;;32.66;39.87;101199.25;4946533;28;99214;-61
2023/09/27 10:10:19;;;;;;;;;;;;;;;32.84;39.33;101198.41;4962227;28;98874;-55
2023/09/27 10:12:50;;;;;;;;;;;;;;;33.06;39.35;101196.41;4946478;28;99531;-61
2023/09/27 10:15:17;;;;;;;;;;;;;;;33.24;39.33;101197.09;4926524;28;98730;-61
2023/09/27 10:17:43;;;;;;;;;;;;;;;33.46;39.08;101204.22;4938369;28;115415;-61
2023/09/27 10:20:14;;;;;;;;;;;;;;;33.66;39.15;101201.72;4953778;28;99091;-55
2023/09/27 10:22:40;;;;;;;;;;;;;;;33.85;39.31;101197.59;4968912;27;98482;-61
2023/09/27 10:25:29;;;;;;;;;;;;;;;33.92;38.95;101196.75;4970605;27;100472;-55
2023/09/27 10:28:02;;;;;;;;;;;;;;;34.03;39.12;101194.69;4955273;28;97967;-61
2023/09/27 10:30:48;;;;;;;;;;;;;;;34.07;38.93;101189.06;4958194;28;98479;-55
2023/09/27 10:33:17;;;;;;;;;;;;;;;34.25;39.15;101191.72;4958152;28;98491;-56
2023/09/27 10:35:44;;;;;;;;;;;;;;;34.43;38.73;101195.97;4956610;28;98451;-55
2023/09/27 10:38:10;;;;;;;;;;;;;;;34.53;38.93;101187.91;4964335;28;98284;-61
2023/09/27 10:40:46;;;;;;;;;;;;;;;34.66;38.64;101183.34;4946564;28;100274;-61
2023/09/27 10:43:43;;;;;;;;;;;;;;;34.78;38.65;101182.03;4957781;28;98168;-55
2023/09/27 10:46:09;;;;;;;;;;;;;;;34.84;38.35;101180.38;4924889;28;97993;-61
2023/09/27 10:48:42;;;;;;;;;;;;;;;34.88;38.85;101172.72;4965158;28;98125;-55
2023/09/27 10:51:08;;;;;;;;;;;;;;;35.04;38.77;101172.16;4954837;28;98821;-56
2023/09/27 10:53:34;;;;;;;;;;;;;;;35.18;38.62;101163.59;4959790;28;98712;-61
2023/09/27 10:56:00;;;;;;;;;;;;;;;35.39;38.41;101165.31;4928451;28;98102;-56
2023/09/27 10:58:26;;;;;;;;;;;;;;;35.59;38.16;101159.84;4978448;27;98304;-57
2023/09/27 11:01:04;;;;;;;;;;;;;;;35.78;37.92;101164.75;4943964;28;120972;-56
2023/09/27 11:03:31;;;;;;;;;;;;;;;36.11;37.44;101162.25;4948933;28;98502;-62
2023/09/27 11:06:11;;;;;;;;;;;;;;;36.44;37.12;101154.06;4963405;28;98041;-61
2023/09/27 11:08:37;;;;;;;;;;;;;;;36.77;37.11;101155.84;4975159;27;98168;-55
2023/09/27 11:11:05;;;;;;;;;;;;;;;37.09;37.27;101160.81;4925026;28;99652;-62
2023/09/27 11:13:32;;;;;;;;;;;;;;;37.39;37.18;101152.56;4957317;28;98870;-61
2023/09/27 11:16:12;;;;;;;;;;;;;;;37.58;36.64;101158.16;4955389;28;98276;-56
2023/09/27 11:18:49;;;;;;;;;;;;;;;37.78;36.76;101137.63;4965424;28;98340;-56
2023/09/27 11:21:15;;;;;;;;;;;;;;;37.98;36.71;101137.56;4973738;27;98901;-61
2023/09/27 11:23:58;;;;;;;;;;;;;;;38.08;36.96;101130.84;4956044;28;98419;-56
2023/09/27 11:26:25;;;;;;;;;;;;;;;38.23;36.54;101132.06;4961744;28;99286;-61
2023/09/27 11:29:03;;;;;;;;;;;;;;;38.27;36.26;101129.16;4963096;28;97955;-62
2023/09/27 11:31:36;;;;;;;;;;;;;;;38.15;36.71;101115.81;4961138;28;98233;-57
2023/09/27 11:34:16;;;;;;;;;;;;;;;38.07;36.60;101116.00;4921295;28;98262;-57
2023/09/27 11:36:49;;;;;;;;;;;;;;;37.99;36.25;101114.59;4958257;28;99062;-57
2023/09/27 11:39:19;;;;;;;;;;;;;;;37.94;37.01;101112.31;4977097;27;99701;-63
2023/09/27 11:41:45;;;;;;;;;;;;;;;37.91;36.54;101110.38;4941985;28;98120;-62
2023/09/27 11:44:18;;;;;;;;;;;;;;;37.93;36.55;101105.13;4950348;28;98640;-63
2023/09/27 11:46:44;;;;;;;;;;;;;;;37.91;36.94;101106.78;4941677;28;99189;-62
2023/09/27 11:49:10;;;;;;;;;;;;;;;37.88;36.74;101100.00;4959282;28;98070;-62
2023/09/27 11:51:36;;;;;;;;;;;;;;;37.87;37.32;101097.63;4959864;28;98216;-57
2023/09/27 11:54:05;;;;;;;;;;;;;;;37.85;37.10;101086.81;4947073;28;107675;-58
2023/09/27 11:56:33;;;;;;;;;;;;;;;37.79;37.48;101086.56;4947640;28;110810;-57
2023/09/27 11:58:59;;;;;;;;;;;;;;;37.64;37.06;101078.91;4928835;28;99322;-57
2023/09/27 12:01:25;;;;;;;;;;;;;;;37.51;37.38;101081.66;4977445;27;98007;-57
2023/09/27 12:03:52;;;;;;;;;;;;;;;37.37;36.96;101079.94;4956390;28;108829;-63
2023/09/27 12:06:18;;;;;;;;;;;;;;;37.05;37.48;101073.03;4962679;28;98577;-62
2023/09/27 12:08:44;;;;;;;;;;;;;;;36.77;37.16;101073.63;4945690;28;98088;-62
2023/09/27 12:11:11;;;;;;;;;;;;;;;36.48;37.80;101065.81;4958824;28;98524;-62
2023/09/27 12:13:37;;;;;;;;;;;;;;;36.19;37.88;101059.91;4924576;28;98230;-63
2023/09/27 12:16:03;;;;;;;;;;;;;;;36.08;38.14;101057.34;4974879;27;98185;-57
2023/09/27 12:18:29;;;;;;;;;;;;;;;35.92;38.04;101047.97;4961261;28;97984;-57
2023/09/27 12:20:55;;;;;;;;;;;;;;;35.63;38.36;101046.47;4922646;28;129965;-63
2023/09/27 12:23:22;;;;;;;;;;;;;;;35.39;38.59;101042.81;4945609;28;120115;-57
2023/09/27 12:25:48;;;;;;;;;;;;;;;35.27;38.62;101049.03;4944009;28;98313;-57
2023/09/27 12:28:15;;;;;;;;;;;;;;;35.19;38.76;101038.34;4943124;28;98184;-57
2023/09/27 12:30:41;;;;;;;;;;;;;;;35.12;38.87;101030.84;4955929;28;98355;-57
2023/09/27 12:33:07;;;;;;;;;;;;;;;35.10;38.88;101036.09;4962171;28;97996;-57
2023/09/27 12:35:33;;;;;;;;;;;;;;;35.05;38.92;101030.94;4960544;28;99435;-57
2023/09/27 12:38:03;;;;;;;;;;;;;;;34.97;38.82;101027.44;4960961;28;98149;-57